sensor_id;sensor_type;location;lat;lon;timestamp;pressure;altitude;pressure_sealevel;temperature;humidity
58471;BME280;44258;51.288;12.068;2023-03-21T00:02:12;100643.16;;;10.05;57.81
58471;BME280;44258;51.288;12.068;2023-03-21T00:04:41;100642.13;;;10.07;57.52
58471;BME280;44258;51.288;12.068;2023-03-21T00:07:07;100639.91;;;9.98;57.86
58471;BME280;44258;51.288;12.068;2023-03-21T00:09:34;100628.00;;;10.04;57.65
58471;BME280;44258;51.288;12.068;2023-03-21T00:12:01;100638.22;;;9.95;57.55
58471;BME280;44258;51.288;12.068;2023-03-21T00:14:32;100638.88;;;10.01;57.82
58471;BME280;44258;51.288;12.068;2023-03-21T00:16:58;100643.75;;;9.92;58.02
58471;BME280;44258;51.288;12.068;2023-03-21T00:19:27;100643.19;;;9.86;58.03
58471;BME280;44258;51.288;12.068;2023-03-21T00:21:53;100643.69;;;9.75;58.16
58471;BME280;44258;51.288;12.068;2023-03-21T00:24:20;100644.94;;;9.68;58.39
58471;BME280;44258;51.288;12.068;2023-03-21T00:26:48;100635.34;;;9.62;58.34
58471;BME280;44258;51.288;12.068;2023-03-21T00:29:16;100643.84;;;9.53;58.41
58471;BME280;44258;51.288;12.068;2023-03-21T00:31:42;100639.56;;;9.68;58.15
58471;BME280;44258;51.288;12.068;2023-03-21T00:34:09;100636.59;;;9.74;57.97
58471;BME280;44258;51.288;12.068;2023-03-21T00:36:38;100640.44;;;9.49;58.39
58471;BME280;44258;51.288;12.068;2023-03-21T00:39:04;100642.44;;;9.44;58.52
58471;BME280;44258;51.288;12.068;2023-03-21T00:41:31;100642.84;;;9.35;58.78
58471;BME280;44258;51.288;12.068;2023-03-21T00:43:58;100641.38;;;9.48;58.59
58471;BME280;44258;51.288;12.068;2023-03-21T00:46:24;100636.16;;;9.45;58.67
58471;BME280;44258;51.288;12.068;2023-03-21T00:48:51;100643.63;;;9.58;58.61
58471;BME280;44258;51.288;12.068;2023-03-21T00:51:20;100638.25;;;9.58;58.69
58471;BME280;44258;51.288;12.068;2023-03-21T00:53:54;100635.28;;;9.64;58.45
58471;BME280;44258;51.288;12.068;2023-03-21T00:56:22;100636.72;;;9.71;58.37
58471;BME280;44258;51.288;12.068;2023-03-21T00:58:48;100634.50;;;9.62;58.82
58471;BME280;44258;51.288;12.068;2023-03-21T01:01:15;100631.44;;;9.69;58.93
58471;BME280;44258;51.288;12.068;2023-03-21T01:03:42;100635.63;;;9.75;58.64
58471;BME280;44258;51.288;12.068;2023-03-21T01:06:16;100632.88;;;9.77;58.80
58471;BME280;44258;51.288;12.068;2023-03-21T01:08:46;100628.38;;;9.77;58.63
58471;BME280;44258;51.288;12.068;2023-03-21T01:11:19;100629.03;;;9.82;58.67
58471;BME280;44258;51.288;12.068;2023-03-21T01:13:47;100625.88;;;9.91;58.75
58471;BME280;44258;51.288;12.068;2023-03-21T01:16:14;100624.72;;;9.97;58.59
58471;BME280;44258;51.288;12.068;2023-03-21T01:18:40;100629.59;;;9.89;58.64
58471;BME280;44258;51.288;12.068;2023-03-21T01:21:09;100619.22;;;9.81;58.71
58471;BME280;44258;51.288;12.068;2023-03-21T01:23:39;100628.38;;;9.77;58.83
58471;BME280;44258;51.288;12.068;2023-03-21T01:26:07;100621.28;;;9.76;59.04
58471;BME280;44258;51.288;12.068;2023-03-21T01:28:36;100628.22;;;9.80;59.18
58471;BME280;44258;51.288;12.068;2023-03-21T01:31:04;100624.16;;;9.90;59.03
58471;BME280;44258;51.288;12.068;2023-03-21T01:33:32;100631.00;;;9.98;58.69
58471;BME280;44258;51.288;12.068;2023-03-21T01:35:59;100631.00;;;9.98;59.02
58471;BME280;44258;51.288;12.068;2023-03-21T01:38:27;100618.03;;;10.06;58.88
58471;BME280;44258;51.288;12.068;2023-03-21T01:40:53;100620.44;;;10.12;58.91
58471;BME280;44258;51.288;12.068;2023-03-21T01:43:23;100614.03;;;10.14;58.69
58471;BME280;44258;51.288;12.068;2023-03-21T01:46:26;100612.25;;;10.13;58.83
58471;BME280;44258;51.288;12.068;2023-03-21T01:48:56;100614.94;;;10.13;58.59
58471;BME280;44258;51.288;12.068;2023-03-21T01:51:25;100614.03;;;10.14;58.32
58471;BME280;44258;51.288;12.068;2023-03-21T01:53:53;100609.50;;;10.15;58.56
58471;BME280;44258;51.288;12.068;2023-03-21T01:56:25;100611.09;;;10.02;58.95
58471;BME280;44258;51.288;12.068;2023-03-21T01:58:55;100604.44;;;10.09;58.93
58471;BME280;44258;51.288;12.068;2023-03-21T02:01:30;100603.50;;;10.10;58.80
58471;BME280;44258;51.288;12.068;2023-03-21T02:03:59;100603.41;;;10.11;58.77
58471;BME280;44258;51.288;12.068;2023-03-21T02:06:33;100596.25;;;10.12;59.00
58471;BME280;44258;51.288;12.068;2023-03-21T02:09:05;100598.69;;;10.17;58.91
58471;BME280;44258;51.288;12.068;2023-03-21T02:11:36;100605.78;;;10.18;58.95
58471;BME280;44258;51.288;12.068;2023-03-21T02:14:04;100595.75;;;10.21;58.97
58471;BME280;44258;51.288;12.068;2023-03-21T02:16:40;100594.34;;;10.14;58.99
58471;BME280;44258;51.288;12.068;2023-03-21T02:19:31;100588.88;;;10.15;59.05
58471;BME280;44258;51.288;12.068;2023-03-21T02:22:22;100590.47;;;10.20;59.01
58471;BME280;44258;51.288;12.068;2023-03-21T02:28:06;100580.81;;;10.15;58.52
58471;BME280;44258;51.288;12.068;2023-03-21T02:30:49;100579.53;;;10.05;59.09
58471;BME280;44258;51.288;12.068;2023-03-21T02:33:41;100580.56;;;10.03;59.28
58471;BME280;44258;51.288;12.068;2023-03-21T02:36:22;100575.91;;;10.06;59.23
58471;BME280;44258;51.288;12.068;2023-03-21T02:38:55;100577.56;;;10.09;58.99
58471;BME280;44258;51.288;12.068;2023-03-21T02:41:34;100580.34;;;10.07;59.11
58471;BME280;44258;51.288;12.068;2023-03-21T02:44:06;100584.06;;;10.05;58.92
58471;BME280;44258;51.288;12.068;2023-03-21T02:46:41;100575.44;;;9.98;59.01
58471;BME280;44258;51.288;12.068;2023-03-21T02:49:14;100579.94;;;9.98;58.90
58471;BME280;44258;51.288;12.068;2023-03-21T02:51:43;100576.91;;;9.86;58.83
58471;BME280;44258;51.288;12.068;2023-03-21T02:54:16;100582.72;;;9.77;59.13
58471;BME280;44258;51.288;12.068;2023-03-21T02:56:46;100580.50;;;9.68;59.01
58471;BME280;44258;51.288;12.068;2023-03-21T02:59:15;100577.38;;;9.58;59.42
58471;BME280;44258;51.288;12.068;2023-03-21T03:01:43;100582.31;;;9.48;59.76
58471;BME280;44258;51.288;12.068;2023-03-21T03:04:28;100579.13;;;9.40;60.20
58471;BME280;44258;51.288;12.068;2023-03-21T03:07:10;100578.13;;;9.43;60.21
58471;BME280;44258;51.288;12.068;2023-03-21T03:09:51;100578.47;;;9.54;60.33
58471;BME280;44258;51.288;12.068;2023-03-21T03:12:31;100581.31;;;9.51;60.15
58471;BME280;44258;51.288;12.068;2023-03-21T03:15:07;100576.75;;;9.53;60.22
58471;BME280;44258;51.288;12.068;2023-03-21T03:17:45;100577.97;;;9.46;60.44
58471;BME280;44258;51.288;12.068;2023-03-21T03:20:29;100574.53;;;9.42;60.71
58471;BME280;44258;51.288;12.068;2023-03-21T03:23:06;100570.78;;;9.46;60.70
58471;BME280;44258;51.288;12.068;2023-03-21T03:25:46;100566.06;;;9.51;60.64
58471;BME280;44258;51.288;12.068;2023-03-21T03:28:18;100564.97;;;9.56;60.50
58471;BME280;44258;51.288;12.068;2023-03-21T03:30:48;100571.78;;;9.63;60.35
58471;BME280;44258;51.288;12.068;2023-03-21T03:33:16;100571.94;;;9.60;60.32
58471;BME280;44258;51.288;12.068;2023-03-21T03:35:48;100566.69;;;9.57;60.49
58471;BME280;44258;51.288;12.068;2023-03-21T03:38:17;100572.00;;;9.58;60.65
58471;BME280;44258;51.288;12.068;2023-03-21T03:40:52;100571.28;;;9.54;60.74
58471;BME280;44258;51.288;12.068;2023-03-21T03:43:22;100570.34;;;9.56;60.45
58471;BME280;44258;51.288;12.068;2023-03-21T03:45:55;100572.38;;;9.50;60.60
58471;BME280;44258;51.288;12.068;2023-03-21T03:48:25;100574.69;;;9.58;60.54
58471;BME280;44258;51.288;12.068;2023-03-21T03:50:59;100574.25;;;9.67;60.56
58471;BME280;44258;51.288;12.068;2023-03-21T03:53:31;100571.28;;;9.73;60.43
58471;BME280;44258;51.288;12.068;2023-03-21T03:56:04;100564.63;;;9.81;60.44
58471;BME280;44258;51.288;12.068;2023-03-21T03:58:34;100562.38;;;9.90;60.37
58471;BME280;44258;51.288;12.068;2023-03-21T04:01:04;100556.03;;;9.91;60.19
58471;BME280;44258;51.288;12.068;2023-03-21T04:03:32;100555.56;;;9.83;60.02
58471;BME280;44258;51.288;12.068;2023-03-21T04:05:59;100555.78;;;9.79;60.08
58471;BME280;44258;51.288;12.068;2023-03-21T04:08:26;100559.31;;;9.62;60.52
58471;BME280;44258;51.288;12.068;2023-03-21T04:10:53;100557.22;;;9.49;60.70
58471;BME280;44258;51.288;12.068;2023-03-21T04:13:21;100560.84;;;9.48;60.75
58471;BME280;44258;51.288;12.068;2023-03-21T04:15:48;100548.81;;;9.57;60.67
58471;BME280;44258;51.288;12.068;2023-03-21T04:18:15;100553.22;;;9.58;60.47
58471;BME280;44258;51.288;12.068;2023-03-21T04:20:42;100556.06;;;9.55;60.52
58471;BME280;44258;51.288;12.068;2023-03-21T04:23:10;100553.38;;;9.55;60.47
58471;BME280;44258;51.288;12.068;2023-03-21T04:25:37;100554.38;;;9.52;60.64
58471;BME280;44258;51.288;12.068;2023-03-21T04:28:04;100560.75;;;9.50;60.55
58471;BME280;44258;51.288;12.068;2023-03-21T04:30:32;100557.28;;;9.48;60.70
58471;BME280;44258;51.288;12.068;2023-03-21T04:32:59;100556.19;;;9.52;60.48
58471;BME280;44258;51.288;12.068;2023-03-21T04:35:26;100554.78;;;9.45;60.49
58471;BME280;44258;51.288;12.068;2023-03-21T04:37:54;100551.44;;;9.38;60.54
58471;BME280;44258;51.288;12.068;2023-03-21T04:40:21;100552.63;;;9.32;60.91
58471;BME280;44258;51.288;12.068;2023-03-21T04:42:49;100551.97;;;9.27;60.84
58471;BME280;44258;51.288;12.068;2023-03-21T04:45:16;100552.91;;;9.26;60.87
58471;BME280;44258;51.288;12.068;2023-03-21T04:47:45;100549.41;;;9.24;60.92
58471;BME280;44258;51.288;12.068;2023-03-21T04:50:12;100549.28;;;9.27;61.00
58471;BME280;44258;51.288;12.068;2023-03-21T04:52:41;100553.34;;;9.36;60.78
58471;BME280;44258;51.288;12.068;2023-03-21T04:55:08;100554.97;;;9.40;60.83
58471;BME280;44258;51.288;12.068;2023-03-21T04:57:35;100558.44;;;9.42;60.80
58471;BME280;44258;51.288;12.068;2023-03-21T05:00:04;100554.09;;;9.40;61.07
58471;BME280;44258;51.288;12.068;2023-03-21T05:02:34;100553.34;;;9.36;61.10
58471;BME280;44258;51.288;12.068;2023-03-21T05:05:03;100556.31;;;9.30;61.03
58471;BME280;44258;51.288;12.068;2023-03-21T05:07:30;100559.72;;;9.33;61.01
58471;BME280;44258;51.288;12.068;2023-03-21T05:09:57;100561.63;;;9.31;61.16
58471;BME280;44258;51.288;12.068;2023-03-21T05:12:24;100554.72;;;9.26;61.42
58471;BME280;44258;51.288;12.068;2023-03-21T05:14:50;100554.06;;;9.21;61.42
58471;BME280;44258;51.288;12.068;2023-03-21T05:17:17;100548.41;;;9.27;61.39
58471;BME280;44258;51.288;12.068;2023-03-21T05:19:47;100553.06;;;9.23;61.47
58471;BME280;44258;51.288;12.068;2023-03-21T05:22:16;100549.41;;;9.24;61.38
58471;BME280;44258;51.288;12.068;2023-03-21T05:24:44;100557.84;;;9.35;61.06
58471;BME280;44258;51.288;12.068;2023-03-21T05:27:14;100544.34;;;9.37;60.93
58471;BME280;44258;51.288;12.068;2023-03-21T05:30:03;100547.88;;;9.39;61.08
58471;BME280;44258;51.288;12.068;2023-03-21T05:32:31;100557.44;;;9.45;60.96
58471;BME280;44258;51.288;12.068;2023-03-21T05:34:57;100548.16;;;9.52;60.99
58471;BME280;44258;51.288;12.068;2023-03-21T05:37:26;100554.13;;;9.38;61.08
58471;BME280;44258;51.288;12.068;2023-03-21T05:39:56;100553.00;;;9.44;61.06
58471;BME280;44258;51.288;12.068;2023-03-21T05:42:22;100552.94;;;9.45;61.14
58471;BME280;44258;51.288;12.068;2023-03-21T05:44:50;100557.22;;;9.49;61.00
58471;BME280;44258;51.288;12.068;2023-03-21T05:47:17;100552.72;;;9.50;61.00
58471;BME280;44258;51.288;12.068;2023-03-21T05:49:44;100555.41;;;9.50;61.03
58471;BME280;44258;51.288;12.068;2023-03-21T05:52:11;100550.09;;;9.48;61.15
58471;BME280;44258;51.288;12.068;2023-03-21T05:54:40;100560.34;;;9.40;61.50
58471;BME280;44258;51.288;12.068;2023-03-21T05:57:06;100549.69;;;9.39;61.52
58471;BME280;44258;51.288;12.068;2023-03-21T05:59:33;100546.91;;;9.40;61.71
58471;BME280;44258;51.288;12.068;2023-03-21T06:02:00;100560.03;;;9.46;61.59
58471;BME280;44258;51.288;12.068;2023-03-21T06:04:27;100551.63;;;9.54;61.52
58471;BME280;44258;51.288;12.068;2023-03-21T06:06:54;100561.34;;;9.57;61.29
58471;BME280;44258;51.288;12.068;2023-03-21T06:09:22;100553.16;;;9.60;61.31
58471;BME280;44258;51.288;12.068;2023-03-21T06:11:52;100564.97;;;9.56;61.15
58471;BME280;44258;51.288;12.068;2023-03-21T06:14:19;100557.94;;;9.53;61.12
58471;BME280;44258;51.288;12.068;2023-03-21T06:16:46;100560.47;;;9.56;61.17
58471;BME280;44258;51.288;12.068;2023-03-21T06:19:13;100559.59;;;9.56;61.18
58471;BME280;44258;51.288;12.068;2023-03-21T06:21:40;100555.97;;;9.57;61.27
58471;BME280;44258;51.288;12.068;2023-03-21T06:24:08;100539.44;;;9.66;61.20
58471;BME280;44258;51.288;12.068;2023-03-21T06:26:37;100551.25;;;9.62;61.16
58471;BME280;44258;51.288;12.068;2023-03-21T06:29:05;100544.00;;;9.64;61.18
58471;BME280;44258;51.288;12.068;2023-03-21T06:31:32;100554.81;;;9.62;60.99
58471;BME280;44258;51.288;12.068;2023-03-21T06:33:59;100549.88;;;9.72;61.08
58471;BME280;44258;51.288;12.068;2023-03-21T06:36:26;100555.38;;;9.69;61.03
58471;BME280;44258;51.288;12.068;2023-03-21T06:38:52;100555.06;;;9.75;60.79
58471;BME280;44258;51.288;12.068;2023-03-21T06:41:19;100562.91;;;9.80;60.87
58471;BME280;44258;51.288;12.068;2023-03-21T06:43:46;100562.75;;;9.83;60.79
58471;BME280;44258;51.288;12.068;2023-03-21T06:46:14;100562.50;;;9.87;60.63
58471;BME280;44258;51.288;12.068;2023-03-21T06:48:41;100558.66;;;9.93;60.55
58471;BME280;44258;51.288;12.068;2023-03-21T06:51:10;100559.25;;;10.00;60.56
58471;BME280;44258;51.288;12.068;2023-03-21T06:53:37;100564.94;;;10.11;60.42
58471;BME280;44258;51.288;12.068;2023-03-21T06:56:07;100557.53;;;10.16;60.23
58471;BME280;44258;51.288;12.068;2023-03-21T06:58:34;100556.09;;;10.26;60.01
58471;BME280;44258;51.288;12.068;2023-03-21T07:01:01;100570.16;;;10.31;59.64
58471;BME280;44258;51.288;12.068;2023-03-21T07:03:30;100566.13;;;10.23;59.95
58471;BME280;44258;51.288;12.068;2023-03-21T07:05:57;100563.06;;;10.30;59.65
58471;BME280;44258;51.288;12.068;2023-03-21T07:08:24;100568.44;;;10.30;59.65
58471;BME280;44258;51.288;12.068;2023-03-21T07:10:54;100564.78;;;10.31;59.72
58471;BME280;44258;51.288;12.068;2023-03-21T07:13:22;100560.53;;;10.45;59.28
58471;BME280;44258;51.288;12.068;2023-03-21T07:15:49;100552.44;;;10.27;59.60
58471;BME280;44258;51.288;12.068;2023-03-21T07:18:15;100556.88;;;10.46;59.32
58471;BME280;44258;51.288;12.068;2023-03-21T07:20:48;100558.44;;;10.50;59.54
58471;BME280;44258;51.288;12.068;2023-03-21T07:23:16;100547.38;;;10.56;59.08
58471;BME280;44258;51.288;12.068;2023-03-21T07:25:43;100548.16;;;10.58;58.94
58471;BME280;44258;51.288;12.068;2023-03-21T07:28:09;100551.16;;;10.69;58.80
58471;BME280;44258;51.288;12.068;2023-03-21T07:30:36;100554.47;;;10.74;58.60
58471;BME280;44258;51.288;12.068;2023-03-21T07:33:03;100545.53;;;10.74;58.74
58471;BME280;44258;51.288;12.068;2023-03-21T07:35:32;100545.75;;;10.87;58.52
58471;BME280;44258;51.288;12.068;2023-03-21T07:38:02;100546.78;;;11.02;58.52
58471;BME280;44258;51.288;12.068;2023-03-21T07:40:28;100543.13;;;11.03;58.16
58471;BME280;44258;51.288;12.068;2023-03-21T07:42:55;100544.41;;;10.96;57.95
58471;BME280;44258;51.288;12.068;2023-03-21T07:45:22;100548.56;;;11.01;58.11
58471;BME280;44258;51.288;12.068;2023-03-21T07:47:51;100548.53;;;11.19;58.33
58471;BME280;44258;51.288;12.068;2023-03-21T07:50:21;100548.69;;;11.15;58.23
58471;BME280;44258;51.288;12.068;2023-03-21T07:52:48;100550.88;;;11.25;58.03
58471;BME280;44258;51.288;12.068;2023-03-21T07:55:16;100556.19;;;11.26;58.26
58471;BME280;44258;51.288;12.068;2023-03-21T07:57:43;100548.91;;;11.28;57.67
58471;BME280;44258;51.288;12.068;2023-03-21T08:00:15;100546.53;;;11.22;57.27
58471;BME280;44258;51.288;12.068;2023-03-21T08:02:48;100547.22;;;11.26;57.26
58471;BME280;44258;51.288;12.068;2023-03-21T08:05:20;100549.34;;;11.37;57.79
58471;BME280;44258;51.288;12.068;2023-03-21T08:07:47;100552.19;;;11.49;57.49
58471;BME280;44258;51.288;12.068;2023-03-21T08:10:16;100553.16;;;11.64;57.38
58471;BME280;44258;51.288;12.068;2023-03-21T08:12:44;100545.69;;;11.69;56.71
58471;BME280;44258;51.288;12.068;2023-03-21T08:15:12;100553.91;;;11.66;56.42
58471;BME280;44258;51.288;12.068;2023-03-21T08:17:39;100551.16;;;11.68;56.43
58471;BME280;44258;51.288;12.068;2023-03-21T08:20:09;100552.44;;;11.77;56.70
58471;BME280;44258;51.288;12.068;2023-03-21T08:22:41;100544.69;;;11.86;56.51
58471;BME280;44258;51.288;12.068;2023-03-21T08:25:18;100551.97;;;12.00;56.15
58471;BME280;44258;51.288;12.068;2023-03-21T08:27:49;100555.81;;;11.96;54.91
58471;BME280;44258;51.288;12.068;2023-03-21T08:30:19;100553.13;;;12.12;55.12
58471;BME280;44258;51.288;12.068;2023-03-21T08:32:46;100549.47;;;11.97;55.75
58471;BME280;44258;51.288;12.068;2023-03-21T08:35:15;100551.69;;;12.05;55.29
58471;BME280;44258;51.288;12.068;2023-03-21T08:37:43;100551.78;;;12.19;54.31
58471;BME280;44258;51.288;12.068;2023-03-21T08:40:12;100546.84;;;12.42;54.83
58471;BME280;44258;51.288;12.068;2023-03-21T08:42:43;100550.94;;;12.63;54.13
58471;BME280;44258;51.288;12.068;2023-03-21T08:45:12;100552.13;;;12.88;53.73
58471;BME280;44258;51.288;12.068;2023-03-21T08:47:39;100546.53;;;12.91;54.01
58471;BME280;44258;51.288;12.068;2023-03-21T08:50:08;100546.53;;;12.91;53.17
58471;BME280;44258;51.288;12.068;2023-03-21T08:52:40;100546.91;;;13.13;52.50
58471;BME280;44258;51.288;12.068;2023-03-21T08:55:08;100545.56;;;13.06;52.44
58471;BME280;44258;51.288;12.068;2023-03-21T08:57:35;100550.41;;;13.30;52.17
58471;BME280;44258;51.288;12.068;2023-03-21T09:00:07;100541.22;;;13.32;52.44
58471;BME280;44258;51.288;12.068;2023-03-21T09:02:37;100536.59;;;13.34;51.49
58471;BME280;44258;51.288;12.068;2023-03-21T09:05:06;100543.81;;;13.48;51.49
58471;BME280;44258;51.288;12.068;2023-03-21T09:07:34;100547.28;;;13.50;51.59
58471;BME280;44258;51.288;12.068;2023-03-21T09:10:02;100535.06;;;13.72;50.86
58471;BME280;44258;51.288;12.068;2023-03-21T09:12:28;100535.31;;;13.54;50.88
58471;BME280;44258;51.288;12.068;2023-03-21T09:14:58;100529.94;;;13.40;51.15
58471;BME280;44258;51.288;12.068;2023-03-21T09:17:28;100529.16;;;13.52;51.72
58471;BME280;44258;51.288;12.068;2023-03-21T09:19:56;100534.94;;;13.46;51.51
58471;BME280;44258;51.288;12.068;2023-03-21T09:22:28;100531.84;;;13.80;50.71
58471;BME280;44258;51.288;12.068;2023-03-21T09:24:55;100525.78;;;13.76;49.32
58471;BME280;44258;51.288;12.068;2023-03-21T09:27:26;100529.47;;;13.75;50.28
58471;BME280;44258;51.288;12.068;2023-03-21T09:29:53;100525.53;;;13.66;50.11
58471;BME280;44258;51.288;12.068;2023-03-21T09:32:22;100532.84;;;13.79;50.01
58471;BME280;44258;51.288;12.068;2023-03-21T09:34:51;100521.34;;;13.75;50.72
58471;BME280;44258;51.288;12.068;2023-03-21T09:37:20;100522.97;;;14.05;49.96
58471;BME280;44258;51.288;12.068;2023-03-21T09:39:47;100513.03;;;14.18;49.68
58471;BME280;44258;51.288;12.068;2023-03-21T09:42:23;100511.53;;;14.27;49.72
58471;BME280;44258;51.288;12.068;2023-03-21T09:44:59;100516.25;;;14.38;49.96
58471;BME280;44258;51.288;12.068;2023-03-21T09:47:37;100513.13;;;14.57;49.18
58471;BME280;44258;51.288;12.068;2023-03-21T09:50:14;100512.50;;;14.66;49.46
58471;BME280;44258;51.288;12.068;2023-03-21T09:52:45;100512.78;;;14.36;48.11
58471;BME280;44258;51.288;12.068;2023-03-21T09:55:17;100508.91;;;14.40;48.91
58471;BME280;44258;51.288;12.068;2023-03-21T09:57:48;100502.97;;;14.60;48.69
58471;BME280;44258;51.288;12.068;2023-03-21T10:00:20;100511.06;;;14.73;48.53
58471;BME280;44258;51.288;12.068;2023-03-21T10:03:02;100503.81;;;14.86;48.43
58471;BME280;44258;51.288;12.068;2023-03-21T10:05:34;100503.38;;;14.67;47.70
58471;BME280;44258;51.288;12.068;2023-03-21T10:08:08;100495.03;;;14.57;47.85
58471;BME280;44258;51.288;12.068;2023-03-21T10:10:39;100498.94;;;14.53;47.93
58471;BME280;44258;51.288;12.068;2023-03-21T10:13:13;100489.41;;;14.47;48.52
58471;BME280;44258;51.288;12.068;2023-03-21T10:15:41;100491.47;;;14.44;48.68
58471;BME280;44258;51.288;12.068;2023-03-21T10:18:12;100492.78;;;14.77;48.22
58471;BME280;44258;51.288;12.068;2023-03-21T10:20:42;100485.72;;;14.87;48.29
58471;BME280;44258;51.288;12.068;2023-03-21T10:23:14;100481.72;;;14.92;47.87
58471;BME280;44258;51.288;12.068;2023-03-21T10:25:44;100476.19;;;14.81;47.83
58471;BME280;44258;51.288;12.068;2023-03-21T10:28:14;100477.47;;;15.01;47.72
58471;BME280;44258;51.288;12.068;2023-03-21T10:30:44;100474.97;;;15.11;47.25
58471;BME280;44258;51.288;12.068;2023-03-21T10:33:16;100477.06;;;14.94;47.36
58471;BME280;44258;51.288;12.068;2023-03-21T10:35:50;100471.44;;;14.59;48.06
58471;BME280;44258;51.288;12.068;2023-03-21T10:38:19;100481.63;;;14.68;48.71
58471;BME280;44258;51.288;12.068;2023-03-21T10:40:46;100467.97;;;14.83;48.42
58471;BME280;44258;51.288;12.068;2023-03-21T10:43:19;100469.28;;;14.77;48.28
58471;BME280;44258;51.288;12.068;2023-03-21T10:45:52;100475.88;;;14.99;47.86
58471;BME280;44258;51.288;12.068;2023-03-21T10:48:19;100467.91;;;15.08;48.14
58471;BME280;44258;51.288;12.068;2023-03-21T10:50:50;100467.19;;;14.93;48.05
58471;BME280;44258;51.288;12.068;2023-03-21T10:53:20;100465.03;;;14.99;47.65
58471;BME280;44258;51.288;12.068;2023-03-21T10:55:51;100459.38;;;15.02;48.13
58471;BME280;44258;51.288;12.068;2023-03-21T10:58:24;100465.78;;;15.01;48.41
58471;BME280;44258;51.288;12.068;2023-03-21T11:00:55;100456.59;;;14.90;49.39
58471;BME280;44258;51.288;12.068;2023-03-21T11:03:26;100457.56;;;14.89;48.08
58471;BME280;44258;51.288;12.068;2023-03-21T11:06:01;100452.16;;;14.89;49.05
58471;BME280;44258;51.288;12.068;2023-03-21T11:08:28;100451.16;;;15.03;48.74
58471;BME280;44258;51.288;12.068;2023-03-21T11:11:00;100449.41;;;15.02;48.47
58471;BME280;44258;51.288;12.068;2023-03-21T11:13:33;100436.53;;;15.30;48.28
58471;BME280;44258;51.288;12.068;2023-03-21T11:16:05;100443.69;;;15.44;48.22
58471;BME280;44258;51.288;12.068;2023-03-21T11:18:39;100443.31;;;15.11;48.03
58471;BME280;44258;51.288;12.068;2023-03-21T11:21:09;100436.44;;;15.31;48.33
58471;BME280;44258;51.288;12.068;2023-03-21T11:23:40;100431.44;;;15.38;48.09
58471;BME280;44258;51.288;12.068;2023-03-21T11:26:11;100429.13;;;15.08;48.78
58471;BME280;44258;51.288;12.068;2023-03-21T11:28:41;100424.00;;;15.29;49.52
58471;BME280;44258;51.288;12.068;2023-03-21T11:31:09;100431.38;;;15.51;48.01
58471;BME280;44258;51.288;12.068;2023-03-21T11:33:38;100428.56;;;15.52;48.28
58471;BME280;44258;51.288;12.068;2023-03-21T11:39:13;100420.69;;;15.49;48.73
58471;BME280;44258;51.288;12.068;2023-03-21T11:41:41;100426.00;;;15.86;47.90
58471;BME280;44258;51.288;12.068;2023-03-21T11:44:25;100423.13;;;15.77;48.00
58471;BME280;44258;51.288;12.068;2023-03-21T11:46:52;100417.31;;;15.70;48.03
58471;BME280;44258;51.288;12.068;2023-03-21T11:49:20;100414.44;;;15.95;47.20
58471;BME280;44258;51.288;12.068;2023-03-21T11:51:53;100399.19;;;15.70;47.25
58471;BME280;44258;51.288;12.068;2023-03-21T11:54:32;100390.38;;;15.91;47.93
58471;BME280;44258;51.288;12.068;2023-03-21T11:57:06;100394.69;;;15.93;47.12
58471;BME280;44258;51.288;12.068;2023-03-21T11:59:42;100382.38;;;15.89;47.31
58471;BME280;44258;51.288;12.068;2023-03-21T12:02:26;100390.28;;;15.92;46.78
58471;BME280;44258;51.288;12.068;2023-03-21T12:04:58;100376.81;;;15.91;46.44
58471;BME280;44258;51.288;12.068;2023-03-21T12:07:39;100378.84;;;16.00;47.70
58471;BME280;44258;51.288;12.068;2023-03-21T12:10:41;100367.63;;;16.16;46.51
58471;BME280;44258;51.288;12.068;2023-03-21T12:13:25;100376.28;;;16.21;46.81
58471;BME280;44258;51.288;12.068;2023-03-21T12:16:05;100369.84;;;16.22;46.42
58471;BME280;44258;51.288;12.068;2023-03-21T12:18:53;100366.09;;;15.89;47.08
58471;BME280;44258;51.288;12.068;2023-03-21T12:21:29;100357.50;;;16.18;46.65
58471;BME280;44258;51.288;12.068;2023-03-21T12:24:00;100358.75;;;16.03;48.02
58471;BME280;44258;51.288;12.068;2023-03-21T12:26:40;100360.66;;;15.89;47.16
58471;BME280;44258;51.288;12.068;2023-03-21T12:29:32;100359.56;;;15.81;46.86
58471;BME280;44258;51.288;12.068;2023-03-21T12:32:13;100361.94;;;15.61;47.56
58471;BME280;44258;51.288;12.068;2023-03-21T12:35:09;100352.25;;;15.70;47.52
58471;BME280;44258;51.288;12.068;2023-03-21T12:37:42;100346.84;;;15.70;47.74
58471;BME280;44258;51.288;12.068;2023-03-21T12:40:16;100347.31;;;15.75;47.91
58471;BME280;44258;51.288;12.068;2023-03-21T12:43:02;100347.09;;;15.89;48.44
58471;BME280;44258;51.288;12.068;2023-03-21T12:45:36;100347.84;;;15.91;47.96
58471;BME280;44258;51.288;12.068;2023-03-21T12:48:15;100338.38;;;15.97;47.45
58471;BME280;44258;51.288;12.068;2023-03-21T12:50:44;100335.44;;;16.00;47.59
58471;BME280;44258;51.288;12.068;2023-03-21T12:53:27;100336.53;;;15.98;47.67
58471;BME280;44258;51.288;12.068;2023-03-21T12:55:59;100335.69;;;16.20;47.78
58471;BME280;44258;51.288;12.068;2023-03-21T12:58:34;100332.88;;;16.32;47.01
58471;BME280;44258;51.288;12.068;2023-03-21T13:01:05;100325.97;;;16.40;47.33
58471;BME280;44258;51.288;12.068;2023-03-21T13:03:35;100325.22;;;16.49;46.66
58471;BME280;44258;51.288;12.068;2023-03-21T13:06:04;100319.31;;;16.55;46.72
58471;BME280;44258;51.288;12.068;2023-03-21T13:08:35;100313.13;;;16.53;47.34
58471;BME280;44258;51.288;12.068;2023-03-21T13:11:04;100311.16;;;16.66;47.36